East Fultonham, OH (43735)

1:55 AM EST on February 25, 2017 (GMT -0500)
Clayton Township | | Change Station

Elev 1083 ft 39.81 °N, 82.23 °W | Updated 12 seconds ago

Rain
Rain
57.0 °F
Feels Like 57.0 °F
N
2.9
Wind Variable Wind from WSW
Gusts 4.9 mph

Today
High -- | Low -- °F
--% Chance of Precip.
Yesterday
High -- | Low -- °F
Precip. -- in
Pressure 29.57 in
Visibility 6.0 miles
Clouds Scattered Clouds 7000 ft
Overcast 8500 ft
Dew Point 56 °F
Humidity 96%
Rainfall 0.24 in
Snow Depth Not available.
7:07 AM 6:16 PM
Waning Crescent, 2% visible
SPECI KZZV 250642Z AUTO 19004KT 6SM -RA BR SCT070 OVC085 14/13 A2957 RMK AO2 LTG DSNT E AND SE TSB11E26 P0014 T01440128 $
Pressure 29.57 in
Visibility 6.0 miles
Clouds Scattered Clouds 7000 ft
Overcast 8500 ft
Dew Point 56 °F
Humidity 96%
Rainfall 0.24 in
Snow Depth Not available.
7:07 AM 6:16 PM
Waning Crescent, 2% visible
SPECI KZZV 250642Z AUTO 19004KT 6SM -RA BR SCT070 OVC085 14/13 A2957 RMK AO2 LTG DSNT E AND SE TSB11E26 P0014 T01440128 $

Get Your Daily Forecast Email!

Thanks for signing up!

Be on the lookout for a verification email in your inbox.

You'll start receiving the daily forecast at 8 AM.

×

10-Day Weather Forecast

Almanac

Astronomy

Feb. 25, 2017 Rise Set
Actual Time
Civil Twilight
Nautical Twilight
Astronomical Twilight
Moon
Length of Visible Light
Length of Day
Tomorrow will be .
, % of the Moon is Illuminated

Today's Extremes

State Highs State Lows

Community

WunderPhotos

Upload Photos

1,962,540 photos uploaded!

WunderBlog® & News

Nearby

Air Quality

  Air Quality AQ Index Pollutant
Not available.

Snow Depth

Station Depth Elevation

Earthquake Activity

City Distance Mag. Time & Date
Minimum magnitude displayed is 2.5.

Coastal Water Temperatures

Place Temperature

Stations

Nearby Weather Stations

Station Location Temp. Windchill Dew Point Humidity Wind Precip. Elev Updated Type
                   

Watches & Warnings

There are currently no watches in effect.